Time;durP1;ratioP1;P1;durP2;ratioP2;P2;SDS_P1;SDS_P2;PMS_P1;PMS_P2;Temp;Humidity;BMP_temperature;BMP_pressure;BME280_temperature;BME280_humidity;BME280_pressure;Samples;Min_cycle;Max_cycle;Signal;HPM_P1;HPM_P2
2022/04/26 03:37:05;;;;;;;2.70;2.50;;;1.60;99.90;1.30;100462.00;;;;4994779;28;82586;-63
2022/04/26 03:39:34;;;;;;;2.97;2.67;;;1.10;99.90;1.30;100459.00;;;;4996699;28;83511;-63
2022/04/26 03:42:02;;;;;;;5.87;2.73;;;1.50;99.90;1.20;100456.00;;;;4978536;28;82411;-63
2022/04/26 03:44:28;;;;;;;3.43;1.73;;;1.50;99.90;1.30;100461.00;;;;4978539;28;82819;-63
2022/04/26 03:46:54;;;;;;;6.97;3.07;;;1.60;99.90;1.30;100471.00;;;;4977214;28;84005;-63
2022/04/26 03:49:21;;;;;;;7.97;3.90;;;1.50;99.90;1.20;100482.00;;;;4976820;28;113320;-63
2022/04/26 03:51:47;;;;;;;5.13;4.63;;;1.60;99.90;1.20;100475.00;;;;4995172;28;82718;-64
2022/04/26 03:54:13;;;;;;;6.30;4.27;;;1.50;99.90;1.20;100478.00;;;;4997401;28;99238;-63
2022/04/26 03:56:39;;;;;;;19.20;10.00;;;1.50;99.90;1.10;100480.00;;;;4990533;28;111750;-65
2022/04/26 03:59:04;;;;;;;11.90;8.90;;;1.50;99.90;1.10;100486.00;;;;4994299;28;113691;-63
2022/04/26 04:01:46;;;;;;;7.20;6.10;;;1.50;99.90;1.10;100489.00;;;;4995859;28;112906;-64
2022/04/26 04:04:12;;;;;;;8.50;5.73;;;1.40;99.90;1.00;100484.00;;;;4998226;27;82231;-63
2022/04/26 04:06:38;;;;;;;6.37;4.87;;;1.30;99.90;1.00;100477.00;;;;4996656;28;113528;-64
2022/04/26 04:09:04;;;;;;;6.23;4.13;;;1.30;99.90;1.00;100486.00;;;;4997930;28;83025;-64
2022/04/26 04:11:30;;;;;;;6.40;3.40;;;1.30;99.90;1.00;100475.00;;;;4989371;28;110443;-63
2022/04/26 04:13:56;;;;;;;8.07;4.20;;;1.30;99.90;1.10;100476.00;;;;4996453;28;106721;-63
2022/04/26 04:16:22;;;;;;;5.93;4.90;;;1.30;99.90;1.10;100486.00;;;;4996658;28;111867;-63
2022/04/26 04:21:32;;;;;;;5.80;3.00;;;1.40;99.90;1.10;100483.00;;;;4993947;28;82675;-64
2022/04/26 04:23:58;;;;;;;5.50;2.83;;;1.40;99.90;1.10;100484.00;;;;4997439;27;82595;-63
2022/04/26 04:26:23;;;;;;;3.87;3.30;;;1.40;99.90;1.20;100488.00;;;;5000769;28;93011;-63
2022/04/26 04:28:49;;;;;;;3.50;3.20;;;1.50;99.90;1.20;100490.00;;;;4983605;28;113826;-63
2022/04/26 04:31:15;;;;;;;3.77;2.90;;;1.50;99.90;1.30;100490.00;;;;4988438;28;111258;-63
2022/04/26 04:33:43;;;;;;;3.73;2.57;;;1.60;99.90;1.40;100487.00;;;;4980438;28;82852;-63
2022/04/26 04:36:09;;;;;;;3.50;3.10;;;1.70;99.90;1.50;100491.00;;;;4980329;28;84940;-63
2022/04/26 04:38:34;;;;;;;3.43;3.20;;;1.70;99.90;1.60;100493.00;;;;4979706;28;112997;-64
2022/04/26 04:41:00;;;;;;;3.80;3.03;;;1.80;99.90;1.60;100493.00;;;;4988860;28;110411;-64
2022/04/26 04:43:26;;;;;;;5.00;3.27;;;1.90;99.90;1.70;100493.00;;;;5000449;28;92862;-63
2022/04/26 04:45:52;;;;;;;5.50;3.30;;;2.00;99.90;1.80;100499.00;;;;4999347;28;112342;-63
2022/04/26 04:48:17;;;;;;;4.13;3.23;;;2.00;99.90;1.80;100502.00;;;;5000011;28;92401;-63
2022/04/26 04:50:44;;;;;;;4.47;3.43;;;2.10;99.90;1.90;100508.00;;;;4998989;28;101004;-63
2022/04/26 04:53:10;;;;;;;5.30;3.53;;;2.20;99.90;2.00;100508.00;;;;5000497;27;106681;-64
2022/04/26 04:55:38;;;;;;;4.27;3.23;;;2.30;99.90;2.20;100524.00;;;;4988704;28;83222;-62
2022/04/26 04:58:04;;;;;;;3.90;3.20;;;2.40;99.90;2.30;100526.00;;;;5000951;27;83205;-63
2022/04/26 05:00:30;;;;;;;4.60;3.93;;;2.50;99.90;2.50;100527.00;;;;4999690;28;109930;-63
2022/04/26 05:02:56;;;;;;;6.80;3.60;;;2.70;99.90;2.70;100532.00;;;;4999622;28;108727;-63
2022/04/26 05:05:22;;;;;;;4.83;3.90;;;2.80;99.90;2.90;100536.00;;;;4994721;28;82923;-63
2022/04/26 05:07:48;;;;;;;6.20;4.37;;;3.00;99.90;3.00;100550.00;;;;4979896;28;97852;-64
2022/04/26 05:10:14;;;;;;;6.97;5.13;;;3.10;99.90;3.20;100539.00;;;;4979370;28;109998;-65
2022/04/26 05:12:39;;;;;;;6.70;4.23;;;3.40;99.90;3.40;100544.00;;;;4979411;28;107636;-62
2022/04/26 05:15:18;;;;;;;4.17;3.73;;;3.60;99.90;3.60;100542.00;;;;4978943;28;110336;-62
2022/04/26 05:17:43;;;;;;;7.53;4.23;;;3.80;99.90;3.80;100546.00;;;;4981837;28;89375;-62
2022/04/26 05:20:10;;;;;;;6.30;4.47;;;3.90;99.90;4.00;100540.00;;;;4986488;28;110206;-62
2022/04/26 05:24:53;;;;;;;4.50;3.80;;;4.40;99.90;4.30;100541.00;;;;4999701;27;82603;-62
2022/04/26 05:25:22;;;;;;;9.10;4.47;;;4.30;99.90;4.50;100545.00;;;;4999103;27;83989;-62
2022/04/26 05:27:47;;;;;;;4.27;3.87;;;4.60;99.90;4.80;100541.00;;;;4997862;27;99736;-63
2022/04/26 05:30:13;;;;;;;5.97;4.90;;;4.80;99.90;5.00;100541.00;;;;4999344;28;110370;-62
2022/04/26 05:32:39;;;;;;;5.53;4.63;;;5.00;99.90;5.20;100546.00;;;;4999496;28;109032;-62
2022/04/26 05:35:06;;;;;;;6.40;3.70;;;5.60;99.90;5.40;100547.00;;;;4998925;27;82877;-63
2022/04/26 05:37:32;;;;;;;4.77;3.33;;;5.40;99.90;5.60;100557.00;;;;4996611;28;82905;-64
2022/04/26 05:40:02;;;;;;;7.30;3.93;;;5.60;99.90;5.70;100545.00;;;;4978773;28;105888;-64
2022/04/26 05:42:31;;;;;;;4.70;3.50;;;6.10;99.90;6.00;100545.00;;;;4980526;28;82594;-63
2022/04/26 05:44:57;;;;;;;5.40;3.93;;;6.00;99.90;6.20;100555.00;;;;4979450;28;83058;-63
2022/04/26 05:47:23;;;;;;;4.77;3.93;;;6.20;99.90;6.40;100545.00;;;;4978671;28;112950;-64
2022/04/26 05:49:52;;;;;;;4.00;3.60;;;6.80;99.90;6.70;100547.00;;;;4998408;28;89387;-63
2022/04/26 05:52:18;;;;;;;5.77;4.63;;;6.60;99.90;6.90;100541.00;;;;4999897;28;83944;-63
2022/04/26 05:54:44;;;;;;;6.40;4.40;;;6.80;99.90;7.10;100536.00;;;;4998370;28;113087;-64
2022/04/26 05:57:28;;;;;;;4.73;3.43;;;7.10;99.90;7.40;100537.00;;;;4998253;28;112296;-64
2022/04/26 05:59:53;;;;;;;5.27;2.80;;;7.40;99.90;7.70;100539.00;;;;4979599;28;110021;-63
2022/04/26 06:02:19;;;;;;;5.23;3.73;;;7.60;99.90;7.90;100543.00;;;;4979121;28;82505;-63
2022/04/26 06:04:45;;;;;;;4.07;3.67;;;7.90;99.90;8.20;100533.00;;;;4978015;28;112731;-63
2022/04/26 06:07:10;;;;;;;5.87;4.13;;;8.10;99.90;8.50;100543.00;;;;4979610;28;83647;-63
2022/04/26 06:09:58;;;;;;;4.73;3.77;;;8.40;99.90;8.80;100539.00;;;;4995394;28;85536;-63
2022/04/26 06:12:26;;;;;;;7.83;4.60;;;8.70;99.90;8.90;100539.00;;;;4992682;28;109336;-63
2022/04/26 06:14:53;;;;;;;6.20;3.47;;;8.90;99.90;9.10;100547.00;;;;4983326;28;84024;-63
2022/04/26 06:17:19;;;;;;;8.00;3.20;;;9.00;99.90;9.20;100542.00;;;;4998312;28;84647;-63
2022/04/26 06:19:45;;;;;;;9.90;4.27;;;9.20;99.90;9.50;100538.00;;;;4996893;28;93378;-63
2022/04/26 06:22:11;;;;;;;6.33;4.20;;;9.40;99.90;9.70;100543.00;;;;4998433;28;101732;-63
2022/04/26 06:24:37;;;;;;;8.23;4.63;;;9.60;99.90;10.00;100547.00;;;;4996890;28;82755;-64
2022/04/26 06:27:03;;;;;;;5.20;3.73;;;9.90;99.90;10.20;100543.00;;;;4997564;27;112510;-63
2022/04/26 06:29:29;;;;;;;5.23;4.10;;;10.10;99.90;10.40;100544.00;;;;4979616;27;83507;-63
2022/04/26 06:31:55;;;;;;;4.93;3.07;;;10.30;99.90;10.60;100555.00;;;;4979117;28;88347;-63
2022/04/26 06:34:20;;;;;;;6.57;3.67;;;10.60;99.90;10.90;100547.00;;;;4977746;28;112579;-63
2022/04/26 06:36:46;;;;;;;4.47;3.50;;;10.80;99.90;11.10;100558.00;;;;4978660;28;83618;-63
2022/04/26 06:39:12;;;;;;;7.13;4.90;;;11.10;99.90;11.30;100550.00;;;;4994933;28;83896;-64
2022/04/26 06:41:38;;;;;;;6.43;4.07;;;11.20;99.90;11.40;100544.00;;;;4998311;28;105229;-63
2022/04/26 06:44:04;;;;;;;5.97;4.07;;;11.40;99.90;11.50;100548.00;;;;4998457;28;83667;-63
2022/04/26 06:46:30;;;;;;;6.67;4.57;;;11.50;99.90;11.60;100547.00;;;;4997520;28;98886;-63
2022/04/26 06:48:58;;;;;;;5.73;4.43;;;11.60;99.90;11.80;100545.00;;;;4984201;28;82874;-63
2022/04/26 06:51:24;;;;;;;6.57;3.60;;;11.70;99.90;11.80;100545.00;;;;4978993;28;82385;-64
2022/04/26 06:53:51;;;;;;;5.53;3.73;;;11.80;99.90;12.00;100553.00;;;;4978290;28;82651;-63
2022/04/26 06:56:17;;;;;;;11.33;4.10;;;11.90;99.90;12.10;100540.00;;;;4987667;28;83451;-63
2022/04/26 06:58:43;;;;;;;7.33;4.10;;;12.10;99.90;12.30;100548.00;;;;4997086;28;93738;-63
2022/04/26 07:01:16;;;;;;;7.20;5.00;;;12.20;99.90;12.40;100550.00;;;;4998288;28;82425;-63
2022/04/26 07:03:41;;;;;;;5.40;3.70;;;12.30;99.90;12.50;100551.00;;;;4997886;28;85018;-62
2022/04/26 07:06:07;;;;;;;5.13;3.33;;;12.40;99.90;12.60;100553.00;;;;4998384;28;83837;-63
2022/04/26 07:08:33;;;;;;;7.50;4.67;;;12.50;99.90;12.80;100560.00;;;;4987015;28;110808;-63
2022/04/26 07:10:58;;;;;;;7.40;4.47;;;12.60;99.90;12.90;100560.00;;;;4977554;28;107869;-62
2022/04/26 07:13:24;;;;;;;4.90;3.43;;;12.70;99.90;13.10;100566.00;;;;4977420;28;113264;-61
2022/04/26 07:15:50;;;;;;;6.10;3.63;;;14.10;99.90;13.50;100562.00;;;;4987989;28;112504;-63
2022/04/26 07:18:15;;;;;;;5.90;3.33;;;13.20;99.90;13.70;100567.00;;;;4990145;28;110586;-61
2022/04/26 07:20:45;;;;;;;5.13;4.63;;;13.60;99.90;13.90;100570.00;;;;4989252;28;105660;-62
2022/04/26 07:23:12;;;;;;;4.40;3.57;;;13.80;99.90;14.30;100581.00;;;;4998420;28;83317;-63
2022/04/26 07:25:38;;;;;;;4.20;2.90;;;14.00;99.90;14.60;100575.00;;;;4997983;27;83284;-62
2022/04/26 07:28:05;;;;;;;6.73;3.67;;;14.40;99.90;14.90;100577.00;;;;4992317;28;84777;-63
2022/04/26 07:30:38;;;;;;;5.00;3.33;;;14.70;99.90;15.30;100580.00;;;;4977002;28;88509;-63
2022/04/26 07:35:53;;;;;;;7.60;3.97;;;15.30;99.90;15.70;100582.00;;;;4978429;28;82566;-62
2022/04/26 07:38:25;;;;;;;4.32;2.97;;;15.50;98.90;15.90;100578.00;;;;4984942;28;82629;-63
2022/04/26 07:40:51;;;;;;;5.57;3.63;;;15.70;98.40;16.10;100581.00;;;;4997887;28;97354;-62
2022/04/26 07:43:16;;;;;;;4.90;3.17;;;16.00;97.90;16.40;100581.00;;;;4998012;28;83131;-62
2022/04/26 07:45:44;;;;;;;6.97;3.70;;;16.20;97.50;16.60;100586.00;;;;4998212;28;82089;-63
2022/04/26 07:48:11;;;;;;;4.18;2.70;;;16.50;96.40;16.80;100583.00;;;;4992210;28;82410;-63
2022/04/26 07:50:37;;;;;;;3.85;2.90;;;16.60;94.50;17.00;100590.00;;;;4991908;28;82594;-62
2022/04/26 07:53:03;;;;;;;3.13;2.45;;;16.80;92.80;17.10;100590.00;;;;4977521;28;83774;-63
2022/04/26 07:55:30;;;;;;;3.53;2.50;;;17.00;91.50;17.20;100583.00;;;;4987305;28;105048;-63
2022/04/26 07:58:00;;;;;;;4.93;2.97;;;17.10;89.90;17.30;100583.00;;;;4998314;27;98858;-63
2022/04/26 08:00:26;;;;;;;6.13;2.53;;;17.20;89.00;17.40;100587.00;;;;5001005;28;82813;-62
2022/04/26 08:02:52;;;;;;;4.18;2.78;;;17.30;87.30;17.50;100588.00;;;;4983288;28;91374;-62
2022/04/26 08:05:24;;;;;;;5.07;2.97;;;17.40;82.80;17.60;100598.00;;;;4980951;28;82634;-62
2022/04/26 08:07:49;;;;;;;19.50;3.10;;;17.50;76.70;17.50;100595.00;;;;4982622;28;82574;-61
2022/04/26 08:10:16;;;;;;;3.38;3.08;;;17.50;77.50;17.60;100600.00;;;;4999876;28;108955;-63
2022/04/26 08:12:43;;;;;;;5.00;3.25;;;17.50;78.50;17.70;100599.00;;;;5000053;28;112757;-62
2022/04/26 08:15:10;;;;;;;3.38;2.72;;;17.50;79.40;17.80;100596.00;;;;4997836;28;112928;-62
2022/04/26 08:17:36;;;;;;;3.55;2.30;;;17.70;79.30;17.90;100602.00;;;;5000966;28;83765;-61
2022/04/26 08:20:04;;;;;;;2.05;1.85;;;17.80;75.60;17.80;100603.00;;;;4986454;28;106933;-62
2022/04/26 08:22:30;;;;;;;5.30;2.55;;;17.80;71.10;17.70;100609.00;;;;5001423;27;82729;-62
2022/04/26 08:27:40;;;;;;;2.35;2.15;;;17.70;73.60;17.90;100608.00;;;;4999303;28;82633;-62
2022/04/26 08:30:07;;;;;;;7.63;2.25;;;17.80;74.00;18.10;100613.00;;;;4998815;28;108889;-62
2022/04/26 08:32:41;;;;;;;5.07;2.35;;;17.90;74.20;18.30;100617.00;;;;5000026;28;100623;-62
2022/04/26 08:35:10;;;;;;;2.63;1.90;;;18.10;73.50;18.50;100607.00;;;;5000652;28;91570;-63
2022/04/26 08:37:36;;;;;;;7.38;2.40;;;18.30;72.50;18.70;100610.00;;;;4985326;28;82627;-62
2022/04/26 08:40:05;;;;;;;5.72;1.80;;;18.40;70.80;18.80;100613.00;;;;4999131;28;82587;-63
2022/04/26 08:42:39;;;;;;;2.42;1.27;;;18.60;70.00;19.00;100608.00;;;;5000139;28;84210;-64
2022/04/26 08:45:08;;;;;;;1.45;1.13;;;18.80;67.10;19.00;100613.00;;;;4990937;28;84314;-64
2022/04/26 08:53:07;;;;;;;1.88;1.45;;;18.90;59.80;19.10;100611.00;;;;4999498;28;83004;-63
2022/04/26 08:55:33;;;;;;;1.85;1.63;;;18.90;59.90;19.10;100612.00;;;;5000069;28;83586;-64
2022/04/26 08:57:59;;;;;;;1.20;0.90;;;18.90;60.00;19.10;100612.00;;;;4996220;28;112078;-64
2022/04/26 09:00:26;;;;;;;1.25;1.15;;;18.90;56.90;18.80;100615.00;;;;4999608;28;109118;-64
2022/04/26 09:03:04;;;;;;;2.33;1.05;;;18.70;56.10;18.70;100603.00;;;;5000517;28;84435;-64
2022/04/26 09:05:31;;;;;;;1.67;1.30;;;18.50;56.50;18.80;100612.00;;;;4999765;28;83398;-65
2022/04/26 09:07:58;;;;;;;1.75;1.23;;;18.50;57.80;18.90;100607.00;;;;4980769;28;84036;-65
2022/04/26 09:10:25;;;;;;;1.67;1.10;;;18.60;55.30;18.80;100614.00;;;;4980607;28;82492;-64
2022/04/26 09:13:14;;;;;;;1.25;1.13;;;18.60;54.70;18.80;100605.00;;;;4980435;28;83173;-64
2022/04/26 09:15:52;;;;;;;1.10;1.00;;;18.60;55.50;18.90;100605.00;;;;4980671;28;83130;-64
2022/04/26 09:18:27;;;;;;;1.77;1.38;;;18.60;55.00;18.80;100610.00;;;;4979922;28;83356;-65
2022/04/26 09:21:04;;;;;;;1.63;1.30;;;18.60;53.50;18.60;100611.00;;;;4993312;28;82814;-64
2022/04/26 09:23:30;;;;;;;1.30;1.10;;;18.50;52.40;18.60;100611.00;;;;5000386;27;83154;-64
2022/04/26 09:26:11;;;;;;;4.95;1.52;;;18.40;53.70;18.80;100616.00;;;;5000029;27;83303;-64
2022/04/26 09:28:40;;;;;;;1.92;1.23;;;18.40;54.10;19.00;100618.00;;;;4997126;28;103745;-65
2022/04/26 09:31:28;;;;;;;1.30;1.08;;;18.60;54.00;19.10;100623.00;;;;4988660;28;95434;-64
2022/04/26 09:34:13;;;;;;;1.70;0.93;;;18.70;52.70;19.30;100621.00;;;;4979116;28;84325;-64
2022/04/26 09:36:48;;;;;;;1.48;1.38;;;18.90;52.60;19.40;100614.00;;;;4977969;28;82989;-64
2022/04/26 09:39:22;;;;;;;3.78;1.95;;;19.00;52.00;19.50;100621.00;;;;4979580;28;82447;-64
2022/04/26 09:41:49;;;;;;;1.50;1.20;;;19.10;52.00;19.70;100620.00;;;;4997625;28;82653;-64
2022/04/26 09:44:16;;;;;;;1.35;1.10;;;19.30;52.70;19.70;100618.00;;;;4999526;27;82560;-64
2022/04/26 09:46:53;;;;;;;1.95;1.23;;;19.40;51.50;19.80;100619.00;;;;4997817;28;82908;-64
2022/04/26 09:49:21;;;;;;;1.27;1.10;;;19.50;50.30;19.80;100612.00;;;;4999727;28;82675;-65
2022/04/26 09:51:52;;;;;;;1.50;1.40;;;19.40;49.60;19.80;100608.00;;;;4999689;28;81722;-64
2022/04/26 09:54:18;;;;;;;2.72;1.33;;;19.40;50.50;20.00;100624.00;;;;4979840;28;83412;-64
2022/04/26 09:56:47;;;;;;;2.05;1.40;;;19.50;51.20;20.20;100628.00;;;;4990860;28;112255;-64
2022/04/26 09:59:29;;;;;;;4.10;2.42;;;19.70;51.70;20.50;100628.00;;;;4999298;27;83678;-64
2022/04/26 10:01:57;;;;;;;2.60;1.63;;;19.90;51.90;20.60;100622.00;;;;4999057;28;82537;-65
2022/04/26 10:04:27;;;;;;;2.50;1.85;;;20.10;50.00;20.60;100618.00;;;;4999715;28;82909;-65
2022/04/26 10:07:00;;;;;;;5.28;1.52;;;20.20;49.20;20.70;100621.00;;;;4998644;28;101167;-65
2022/04/26 10:09:27;;;;;;;4.40;2.17;;;20.30;48.60;20.70;100632.00;;;;4997230;28;82847;-65
2022/04/26 10:11:57;;;;;;;2.95;2.17;;;20.30;47.60;20.30;100626.00;;;;4998838;28;82822;-65
2022/04/26 10:14:24;;;;;;;3.95;2.75;;;20.00;47.40;20.40;100615.00;;;;4979782;28;83071;-64
2022/04/26 10:16:49;;;;;;;5.40;2.55;;;20.00;49.00;20.70;100624.00;;;;4993355;28;112358;-64
2022/04/26 10:19:16;;;;;;;2.65;2.08;;;20.20;49.00;21.10;100627.00;;;;4977896;28;108939;-64
2022/04/26 10:21:41;;;;;;;4.88;2.22;;;20.40;49.00;21.40;100627.00;;;;4998469;27;82544;-65
2022/04/26 10:24:17;;;;;;;2.85;2.13;;;20.70;48.90;21.80;100625.00;;;;4996696;28;114761;-65
2022/04/26 10:26:43;;;;;;;3.42;1.92;;;21.10;49.20;22.20;100613.00;;;;4997845;28;84399;-65
2022/04/26 10:29:09;;;;;;;4.03;2.30;;;21.40;49.00;22.40;100617.00;;;;4994430;28;82792;-65
2022/04/26 10:31:49;;;;;;;1.98;1.75;;;21.70;48.10;22.70;100618.00;;;;4994773;28;108590;-64
2022/04/26 10:34:16;;;;;;;2.42;2.13;;;22.00;48.40;22.90;100614.00;;;;4978847;28;83578;-63
2022/04/26 10:36:45;;;;;;;4.70;2.50;;;22.20;48.30;23.30;100622.00;;;;4978682;28;83418;-65
2022/04/26 10:39:13;;;;;;;2.55;2.35;;;22.50;48.40;23.50;100624.00;;;;4978216;28;84141;-64
2022/04/26 10:41:43;;;;;;;4.75;2.35;;;22.90;46.40;23.40;100619.00;;;;4981052;28;82033;-64
2022/04/26 10:44:15;;;;;;;1.95;1.63;;;22.90;45.10;23.60;100618.00;;;;4998203;28;83620;-64
2022/04/26 10:46:52;;;;;;;1.83;1.58;;;23.00;46.80;24.00;100628.00;;;;4998846;28;83496;-64
2022/04/26 10:49:29;;;;;;;3.17;2.42;;;23.30;46.80;24.20;100621.00;;;;4995666;28;83890;-65
2022/04/26 10:51:56;;;;;;;3.67;1.88;;;23.50;45.00;24.20;100624.00;;;;4995912;28;82620;-64
2022/04/26 10:54:53;;;;;;;2.60;2.05;;;23.50;44.60;24.30;100627.00;;;;4978413;28;83143;-64
2022/04/26 10:57:20;;;;;;;4.35;2.25;;;23.60;44.80;24.40;100634.00;;;;4996066;28;82721;-64
2022/04/26 10:59:54;;;;;;;3.42;2.35;;;23.80;44.50;24.60;100626.00;;;;4998348;28;93233;-64
2022/04/26 11:02:23;;;;;;;3.08;2.10;;;23.90;44.70;24.70;100628.00;;;;4997467;28;82576;-64
2022/04/26 11:04:57;;;;;;;6.00;3.97;;;24.10;44.00;24.60;100633.00;;;;4998367;28;82704;-64
2022/04/26 11:07:25;;;;;;;3.17;2.50;;;24.10;43.10;24.00;100626.00;;;;4998561;28;83451;-64
2022/04/26 11:09:53;;;;;;;2.78;2.15;;;23.70;43.90;23.30;100629.00;;;;4998219;28;82640;-64
2022/04/26 11:12:24;;;;;;;3.90;2.00;;;23.10;42.60;22.30;100626.00;;;;4992529;28;82612;-64
2022/04/26 11:14:54;;;;;;;2.13;1.42;;;22.40;43.50;21.90;100626.00;;;;4977369;28;84733;-64
2022/04/26 11:17:25;;;;;;;2.33;1.95;;;21.80;45.00;21.80;100631.00;;;;4977707;28;101360;-64
2022/04/26 11:20:14;;;;;;;3.28;1.67;;;21.50;46.50;22.10;100623.00;;;;4982527;28;82871;-65
2022/04/26 11:22:45;;;;;;;3.58;2.17;;;21.60;46.10;22.30;100626.00;;;;4997275;27;82591;-65
2022/04/26 11:28:09;;;;;;;2.40;1.85;;;22.00;46.90;23.30;100622.00;;;;4993472;28;82383;-65
2022/04/26 11:30:47;;;;;;;4.13;2.17;;;22.60;47.00;23.70;100630.00;;;;4998139;28;82802;-65
2022/04/26 11:33:23;;;;;;;2.90;1.98;;;23.10;44.30;23.70;100630.00;;;;4996864;28;81942;-65
2022/04/26 11:35:55;;;;;;;3.30;2.72;;;23.20;44.00;23.80;100638.00;;;;4998378;28;83459;-65
2022/04/26 11:38:22;;;;;;;3.88;2.28;;;23.20;43.80;23.80;100634.00;;;;4997797;28;82943;-66
2022/04/26 11:41:00;;;;;;;4.85;2.40;;;23.20;43.90;24.00;100642.00;;;;4997369;28;98714;-65
2022/04/26 11:43:31;;;;;;;1.70;1.60;;;23.40;44.20;24.40;100634.00;;;;4981982;28;82483;-65
2022/04/26 11:45:58;;;;;;;3.20;2.78;;;23.70;44.40;24.70;100642.00;;;;4978033;28;82795;-65
2022/04/26 11:48:29;;;;;;;3.50;1.90;;;24.00;43.70;24.90;100637.00;;;;4977497;28;97426;-66
2022/04/26 11:50:57;;;;;;;4.63;2.55;;;24.20;43.60;25.10;100635.00;;;;4992638;28;82738;-66
2022/04/26 11:53:31;;;;;;;5.53;2.40;;;24.40;43.90;25.30;100636.00;;;;4992033;28;82785;-66
2022/04/26 11:56:02;;;;;;;2.17;1.85;;;24.60;43.30;25.60;100641.00;;;;4997908;28;82542;-65
2022/04/26 11:58:27;;;;;;;2.28;2.08;;;24.80;43.20;25.80;100634.00;;;;4997032;27;81692;-66
2022/04/26 12:01:16;;;;;;;3.80;1.60;;;25.10;43.60;26.00;100638.00;;;;4997569;28;82455;-65
2022/04/26 12:03:49;;;;;;;1.70;1.33;;;25.30;41.60;25.90;100634.00;;;;4996852;28;82729;-66
2022/04/26 12:06:20;;;;;;;2.45;1.55;;;25.30;41.00;25.70;100630.00;;;;4997825;28;83894;-66
2022/04/26 12:08:53;;;;;;;2.40;1.65;;;25.20;40.90;25.10;100629.00;;;;4996530;28;84460;-66
2022/04/26 12:11:40;;;;;;;3.47;1.92;;;24.80;40.30;24.30;100626.00;;;;4994273;28;102214;-66
2022/04/26 12:14:16;;;;;;;4.82;1.80;;;24.10;40.20;24.00;100623.00;;;;4977557;28;82960;-66
2022/04/26 12:17:15;;;;;;;2.90;2.33;;;23.70;40.80;23.50;100624.00;;;;4977768;28;83400;-66
2022/04/26 12:19:41;;;;;;;1.50;1.40;;;23.40;41.40;23.50;100629.00;;;;4995646;27;83203;-66
2022/04/26 12:22:07;;;;;;;3.17;2.03;;;23.20;41.60;23.40;100626.00;;;;4997236;28;82607;-66
2022/04/26 12:24:48;;;;;;;2.88;2.10;;;23.00;42.30;22.80;100631.00;;;;4998073;28;81862;-66
2022/04/26 12:27:17;;;;;;;4.43;1.45;;;22.60;42.00;22.20;100619.00;;;;4992516;28;83048;-66
2022/04/26 12:29:52;;;;;;;1.30;1.20;;;22.10;43.00;21.90;100625.00;;;;4976351;28;84395;-65
2022/04/26 12:32:24;;;;;;;2.90;1.30;;;21.60;44.00;21.50;100631.00;;;;4987231;28;83740;-65
2022/04/26 12:34:56;;;;;;;2.35;1.60;;;21.30;43.90;21.20;100617.00;;;;4997027;28;82754;-65
2022/04/26 12:37:31;;;;;;;3.50;1.33;;;20.90;44.70;21.10;100624.00;;;;4995195;28;82762;-65
2022/04/26 12:40:04;;;;;;;1.60;1.50;;;20.80;45.10;20.80;100610.00;;;;4996613;28;83702;-65
2022/04/26 12:42:34;;;;;;;1.40;1.30;;;20.60;45.30;20.90;100615.00;;;;4983912;28;82661;-65
2022/04/26 12:45:21;;;;;;;1.65;1.30;;;20.60;46.20;21.20;100616.00;;;;4979197;28;82798;-64
2022/04/26 12:51:12;;;;;;;1.17;1.10;;;20.90;45.60;20.90;100617.00;;;;4981249;28;82310;-65
2022/04/26 12:53:38;;;;;;;1.98;1.40;;;20.70;45.20;20.50;100617.00;;;;4980223;28;82539;-65
2022/04/26 12:56:12;;;;;;;1.88;1.77;;;20.40;45.90;20.10;100612.00;;;;4986885;28;108311;-66
2022/04/26 12:58:40;;;;;;;2.75;2.13;;;20.00;46.40;20.20;100613.00;;;;4997501;28;84711;-65
2022/04/26 13:01:07;;;;;;;2.10;1.48;;;19.90;47.10;20.50;100606.00;;;;4999465;28;107804;-65
2022/04/26 13:03:35;;;;;;;1.52;1.42;;;20.00;47.30;20.90;100610.00;;;;4999757;28;82979;-65
2022/04/26 13:06:19;;;;;;;1.52;0.82;;;20.40;45.80;21.20;100594.00;;;;4995460;28;90767;-65
2022/04/26 13:08:48;;;;;;;1.70;1.45;;;20.70;44.40;21.30;100597.00;;;;4979926;28;92616;-65
2022/04/26 13:11:18;;;;;;;1.00;0.90;;;20.80;44.40;21.50;100588.00;;;;4980396;28;84149;-65
2022/04/26 13:13:46;;;;;;;0.80;0.80;;;20.90;44.60;22.00;100590.00;;;;4999714;28;82712;-65
2022/04/26 13:16:12;;;;;;;2.05;1.33;;;21.30;45.20;22.40;100593.00;;;;5000590;28;81845;-66
2022/04/26 13:18:38;;;;;;;1.88;1.58;;;21.70;45.10;22.90;100577.00;;;;4999074;28;102335;-65
2022/04/26 13:21:05;;;;;;;4.72;1.80;;;22.10;45.00;23.30;100586.00;;;;4999666;28;83628;-65
2022/04/26 13:23:34;;;;;;;1.02;0.90;;;22.60;43.70;23.60;100579.00;;;;4998719;27;83646;-66
2022/04/26 13:26:00;;;;;;;0.60;0.60;;;22.90;42.10;23.70;100574.00;;;;4999839;28;82429;-66
2022/04/26 13:28:27;;;;;;;1.25;0.95;;;23.10;40.40;23.70;100583.00;;;;4983661;28;106389;-65
2022/04/26 13:30:53;;;;;;;2.05;0.93;;;23.10;39.60;23.60;100580.00;;;;4980180;28;82799;-65
2022/04/26 13:33:19;;;;;;;1.80;1.20;;;23.10;39.00;23.20;100583.00;;;;4996434;28;82675;-65
2022/04/26 13:35:45;;;;;;;2.22;1.08;;;22.80;39.60;23.00;100577.00;;;;4999339;28;98094;-65
2022/04/26 13:38:14;;;;;;;1.20;0.85;;;22.60;39.30;22.80;100580.00;;;;4999690;28;83319;-66
2022/04/26 13:40:41;;;;;;;1.40;0.98;;;22.40;39.90;22.90;100574.00;;;;4997992;28;83327;-65
2022/04/26 13:43:08;;;;;;;1.15;1.05;;;22.30;41.00;23.20;100573.00;;;;4982631;28;82845;-65
2022/04/26 13:45:34;;;;;;;2.33;0.93;;;22.60;41.70;23.40;100564.00;;;;4979961;28;82687;-65
2022/04/26 13:48:03;;;;;;;4.05;1.50;;;22.80;40.60;23.50;100573.00;;;;4993739;28;92879;-65
2022/04/26 13:50:31;;;;;;;2.55;1.30;;;22.90;40.50;23.40;100565.00;;;;4993281;28;102228;-66
2022/04/26 13:52:57;;;;;;;1.08;1.00;;;22.80;40.90;23.20;100569.00;;;;4995461;28;82724;-66
2022/04/26 13:55:26;;;;;;;1.23;0.80;;;22.80;40.50;23.00;100561.00;;;;4998494;28;83465;-65
2022/04/26 13:57:54;;;;;;;1.67;1.35;;;22.60;40.30;22.90;100565.00;;;;4999611;28;84147;-65
2022/04/26 14:00:21;;;;;;;2.55;1.40;;;22.40;40.70;23.00;100570.00;;;;4999051;28;83389;-64
2022/04/26 14:02:48;;;;;;;5.97;1.63;;;22.50;41.90;23.30;100573.00;;;;4996515;28;83018;-64
2022/04/26 14:05:16;;;;;;;1.30;1.00;;;22.60;42.50;23.70;100571.00;;;;4999558;28;81860;-67
2022/04/26 14:07:42;;;;;;;2.03;0.98;;;23.00;41.90;23.60;100569.00;;;;4999456;28;89623;-65
2022/04/26 14:10:08;;;;;;;1.95;1.40;;;23.10;41.30;23.80;100570.00;;;;4995519;28;83214;-65
2022/04/26 14:12:35;;;;;;;1.42;1.20;;;23.20;41.60;23.90;100567.00;;;;4979047;28;83385;-65
2022/04/26 14:23:14;;;;;;;2.60;1.88;;;23.10;39.20;23.20;100574.00;;;;4998338;28;82733;-65
2022/04/26 14:25:40;;;;;;;2.75;1.02;;;22.80;40.40;22.90;100580.00;;;;4997468;27;109989;-65
2022/04/26 14:28:05;;;;;;;4.05;1.98;;;22.60;40.90;22.70;100570.00;;;;4986458;28;84470;-65
2022/04/26 14:30:31;;;;;;;1.60;1.02;;;22.40;41.30;22.60;100572.00;;;;4978742;28;82508;-66
2022/04/26 14:32:57;;;;;;;2.63;1.02;;;22.20;41.80;22.60;100571.00;;;;4979201;28;83031;-66
2022/04/26 14:35:23;;;;;;;1.23;1.02;;;22.20;42.10;22.80;100575.00;;;;4988374;28;82859;-65
2022/04/26 14:37:51;;;;;;;0.80;0.80;;;22.20;42.60;22.50;100575.00;;;;4996366;28;102749;-65
2022/04/26 14:40:17;;;;;;;2.97;1.65;;;22.10;41.70;22.10;100578.00;;;;4998703;28;83819;-66
2022/04/26 14:42:46;;;;;;;1.35;1.02;;;21.90;41.60;21.40;100590.00;;;;4998024;28;110590;-65
2022/04/26 14:45:12;;;;;;;1.73;1.02;;;21.40;42.00;20.60;100580.00;;;;4991000;28;82793;-66
2022/04/26 14:47:38;;;;;;;1.48;1.30;;;20.70;42.20;20.00;100581.00;;;;4978734;28;83043;-66
2022/04/26 14:50:08;;;;;;;1.58;1.48;;;20.10;43.40;19.50;100576.00;;;;4978817;28;82926;-67
2022/04/26 14:52:38;;;;;;;1.48;1.15;;;19.50;44.50;18.90;100573.00;;;;4978734;28;82606;-68
2022/04/26 14:55:08;;;;;;;1.17;0.95;;;19.00;45.30;18.60;100581.00;;;;4987638;28;81917;-67
2022/04/26 14:57:49;;;;;;;0.98;0.90;;;18.60;46.00;18.30;100578.00;;;;4997855;28;83514;-67
2022/04/26 15:00:15;;;;;;;1.17;1.08;;;18.30;46.40;18.20;100577.00;;;;4997806;28;112633;-67
2022/04/26 15:02:41;;;;;;;1.35;0.98;;;18.10;47.10;18.10;100575.00;;;;4982783;28;101134;-67